createdAt,value
2023-03-02T00:04:21.372Z,18.02
2023-03-02T00:09:17.036Z,17.75
2023-03-02T00:11:45.757Z,17.25
2023-03-02T00:14:12.613Z,18.05
2023-03-02T00:16:40.360Z,18.48
2023-03-02T00:19:07.278Z,17.48
2023-03-02T00:21:34.021Z,17.00
2023-03-02T00:24:00.822Z,15.70
2023-03-02T00:26:27.543Z,18.00
2023-03-02T00:28:54.635Z,17.67
2023-03-02T00:31:21.465Z,17.90
2023-03-02T00:33:48.400Z,16.92
2023-03-02T00:36:19.352Z,16.27
2023-03-02T00:38:46.865Z,16.77
2023-03-02T00:41:15.383Z,18.52
2023-03-02T00:43:42.525Z,16.73
2023-03-02T00:46:13.507Z,17.05
2023-03-02T00:48:43.756Z,17.23
2023-03-02T00:51:11.510Z,16.90
2023-03-02T00:53:38.848Z,17.35
2023-03-02T00:56:06.751Z,16.77
2023-03-02T00:58:33.871Z,15.80
2023-03-02T01:01:09.563Z,17.45
2023-03-02T01:03:37.390Z,17.60
2023-03-02T01:06:05.022Z,15.77
2023-03-02T01:08:32.586Z,18.17
2023-03-02T01:11:01.604Z,17.70
2023-03-02T01:13:29.701Z,17.40
2023-03-02T01:16:04.332Z,18.08
2023-03-02T01:18:32.802Z,17.73
2023-03-02T01:21:05.992Z,17.52
2023-03-02T01:23:32.896Z,17.08
2023-03-02T01:25:59.826Z,17.20
2023-03-02T01:28:26.950Z,15.48
2023-03-02T01:30:54.501Z,18.70
2023-03-02T01:33:22.166Z,17.85
2023-03-02T01:38:15.939Z,17.10
2023-03-02T01:40:42.659Z,16.92
2023-03-02T01:43:15.260Z,16.33
2023-03-02T01:45:51.409Z,17.42
2023-03-02T01:48:23.795Z,15.88
2023-03-02T01:50:50.475Z,16.27
2023-03-02T01:53:17.502Z,16.83
2023-03-02T01:55:46.098Z,16.52
2023-03-02T01:58:16.242Z,16.30
2023-03-02T02:00:46.294Z,17.63
2023-03-02T02:03:21.252Z,16.90
2023-03-02T02:05:58.280Z,17.05
2023-03-02T02:08:26.265Z,16.95
2023-03-02T02:10:54.294Z,16.63
2023-03-02T02:13:21.097Z,16.33
2023-03-02T02:15:47.768Z,16.47
2023-03-02T02:18:14.619Z,17.60
2023-03-02T02:20:46.751Z,17.33
2023-03-02T02:23:34.198Z,15.00
2023-03-02T02:26:10.050Z,16.63
2023-03-02T02:28:52.175Z,16.70
2023-03-02T02:31:26.814Z,16.77
2023-03-02T02:33:58.739Z,17.83
2023-03-02T02:36:34.000Z,17.48
2023-03-02T02:39:04.938Z,16.42
2023-03-02T02:41:42.713Z,16.63
2023-03-02T02:44:15.562Z,17.33
2023-03-02T02:46:42.682Z,17.55
2023-03-02T02:49:21.481Z,17.02
2023-03-02T02:51:48.277Z,17.33
2023-03-02T02:54:19.098Z,18.15
2023-03-02T02:59:21.350Z,18.08
2023-03-02T03:04:25.702Z,16.85
2023-03-02T03:06:55.761Z,17.88
2023-03-02T03:09:23.145Z,17.60
2023-03-02T03:11:51.465Z,16.90
2023-03-02T03:14:23.294Z,18.15
2023-03-02T03:16:50.567Z,18.75
2023-03-02T03:19:27.683Z,16.27
2023-03-02T03:21:57.520Z,16.38
2023-03-02T03:24:26.224Z,17.00
2023-03-02T03:26:54.465Z,17.65
2023-03-02T03:29:24.260Z,16.25
2023-03-02T03:31:53.031Z,16.52
2023-03-02T03:34:24.004Z,16.17
2023-03-02T03:36:50.582Z,16.00
2023-03-02T03:39:18.698Z,18.38
2023-03-02T03:41:45.796Z,16.45
2023-03-02T03:44:12.613Z,15.98
2023-03-02T03:46:40.100Z,17.40
2023-03-02T03:49:07.851Z,16.65
2023-03-02T03:51:35.734Z,18.27
2023-03-02T03:54:08.278Z,17.52
2023-03-02T03:56:46.890Z,16.58
2023-03-02T03:59:17.492Z,17.23
2023-03-02T04:01:52.583Z,16.50
2023-03-02T04:04:22.584Z,16.37
2023-03-02T04:09:19.374Z,18.67
2023-03-02T04:14:16.732Z,16.90
2023-03-02T04:16:44.521Z,17.80
2023-03-02T04:19:12.386Z,17.90
2023-03-02T04:21:41.470Z,17.57
2023-03-02T04:24:09.812Z,16.37
2023-03-02T04:26:39.337Z,17.27
2023-03-02T04:29:06.901Z,17.17
2023-03-02T04:31:33.888Z,17.00
2023-03-02T04:34:00.804Z,17.73
2023-03-02T04:36:31.298Z,18.00
2023-03-02T04:38:59.358Z,16.55
2023-03-02T04:41:26.133Z,17.03
2023-03-02T04:43:52.947Z,18.77
2023-03-02T04:46:23.733Z,17.87
2023-03-02T04:48:51.950Z,16.70
2023-03-02T04:51:27.200Z,17.67
2023-03-02T04:53:56.901Z,17.40
2023-03-02T04:56:23.888Z,15.98
2023-03-02T04:58:51.675Z,17.05
2023-03-02T05:01:19.665Z,16.77
2023-03-02T05:03:47.074Z,18.80
2023-03-02T05:06:13.856Z,17.27
2023-03-02T05:08:41.354Z,17.50
2023-03-02T05:11:09.010Z,16.70
2023-03-02T05:13:36.536Z,17.67
2023-03-02T05:16:03.776Z,17.20
2023-03-02T05:18:32.182Z,17.20
2023-03-02T05:20:59.114Z,16.93
2023-03-02T05:23:27.282Z,17.40
2023-03-02T05:25:55.898Z,18.07
2023-03-02T05:28:25.069Z,18.80
2023-03-02T05:30:52.712Z,18.57
2023-03-02T05:33:20.604Z,17.40
2023-03-02T05:35:48.362Z,18.43
2023-03-02T05:38:15.917Z,18.27
2023-03-02T05:40:43.910Z,17.87
2023-03-02T05:43:18.185Z,18.23
2023-03-02T05:45:45.413Z,18.97
2023-03-02T05:48:17.803Z,17.80
2023-03-02T05:50:44.982Z,18.47
2023-03-02T05:53:12.811Z,17.73
2023-03-02T05:55:39.553Z,17.73
2023-03-02T05:58:09.337Z,17.37
2023-03-02T06:00:36.884Z,18.27
2023-03-02T06:03:03.986Z,17.50
2023-03-02T06:05:30.741Z,16.70
2023-03-02T06:07:57.465Z,17.70
2023-03-02T06:10:24.860Z,18.77
2023-03-02T06:12:51.961Z,17.10
2023-03-02T06:15:28.881Z,17.90
2023-03-02T06:17:58.168Z,18.00
2023-03-02T06:20:25.404Z,18.83
2023-03-02T06:22:52.452Z,16.50
2023-03-02T06:25:22.672Z,18.60
2023-03-02T06:27:51.610Z,19.75
2023-03-02T06:30:21.143Z,16.58
2023-03-02T06:32:48.039Z,18.83
2023-03-02T06:35:15.066Z,18.52
2023-03-02T06:37:44.167Z,18.00
2023-03-02T06:40:13.994Z,18.77
2023-03-02T06:42:42.917Z,20.10
2023-03-02T06:45:10.677Z,18.98
2023-03-02T06:47:37.642Z,20.08
2023-03-02T06:50:04.775Z,19.52
2023-03-02T06:52:31.534Z,20.02
2023-03-02T06:54:58.238Z,18.70
2023-03-02T06:57:24.957Z,19.48
2023-03-02T06:59:51.710Z,18.65
2023-03-02T07:02:19.456Z,19.13
2023-03-02T07:04:46.149Z,18.98
2023-03-02T07:07:12.850Z,19.60
2023-03-02T07:09:40.026Z,19.38
2023-03-02T07:12:08.193Z,17.52
2023-03-02T07:14:36.622Z,19.27
2023-03-02T07:17:05.174Z,19.05
2023-03-02T07:19:32.085Z,19.40
2023-03-02T07:21:58.916Z,19.23
2023-03-02T07:24:25.655Z,19.63
2023-03-02T07:26:52.628Z,17.98
2023-03-02T07:29:19.372Z,18.80
2023-03-02T07:31:46.172Z,19.05
2023-03-02T07:34:13.041Z,20.13
2023-03-02T07:36:40.024Z,18.20
2023-03-02T07:39:07.708Z,18.15
2023-03-02T07:41:34.852Z,18.05
2023-03-02T07:44:02.066Z,16.73
2023-03-02T07:46:29.056Z,16.73
2023-03-02T07:48:55.719Z,17.45
2023-03-02T07:51:22.689Z,16.33
2023-03-02T07:56:16.057Z,15.45
2023-03-02T07:58:43.287Z,16.42
2023-03-02T08:01:10.159Z,15.82
2023-03-02T08:03:37.189Z,16.10
2023-03-02T08:06:09.139Z,15.77
2023-03-02T08:08:36.625Z,15.90
2023-03-02T08:11:10.010Z,16.75
2023-03-02T08:13:37.375Z,16.45
2023-03-02T08:16:06.690Z,15.30
2023-03-02T08:18:33.877Z,16.10
2023-03-02T08:21:00.749Z,16.23
2023-03-02T08:23:27.833Z,16.23
2023-03-02T08:25:55.483Z,14.93
2023-03-02T08:28:23.393Z,16.05
2023-03-02T08:30:50.691Z,17.13
2023-03-02T08:33:17.392Z,15.85
2023-03-02T08:35:44.129Z,16.00
2023-03-02T08:38:10.812Z,15.52
2023-03-02T08:40:37.503Z,15.23
2023-03-02T08:43:04.417Z,16.58
2023-03-02T08:45:31.794Z,15.95
2023-03-02T08:47:58.526Z,15.55
2023-03-02T08:50:25.224Z,15.15
2023-03-02T08:52:52.060Z,14.50
2023-03-02T08:55:18.808Z,14.05
2023-03-02T08:57:51.813Z,14.45
2023-03-02T09:00:19.294Z,14.05
2023-03-02T09:02:45.959Z,15.27
2023-03-02T09:05:12.731Z,13.85
2023-03-02T09:07:39.370Z,13.02
2023-03-02T09:10:06.622Z,13.85
2023-03-02T09:12:33.458Z,13.93
2023-03-02T09:15:00.245Z,14.20
2023-03-02T09:17:26.939Z,12.80
2023-03-02T09:19:53.587Z,13.57
2023-03-02T09:22:20.360Z,13.88
2023-03-02T09:24:47.020Z,13.52
2023-03-02T09:27:14.367Z,13.23
2023-03-02T09:29:41.182Z,13.27
2023-03-02T09:32:08.646Z,13.93
2023-03-02T09:34:35.643Z,13.20
2023-03-02T09:37:02.390Z,12.43
2023-03-02T09:39:29.298Z,14.25
2023-03-02T09:42:41.783Z,13.77
2023-03-02T09:45:51.753Z,14.02
2023-03-02T09:48:44.425Z,12.23
2023-03-02T09:51:36.397Z,13.50
2023-03-02T09:54:12.124Z,12.40
2023-03-02T09:56:48.820Z,13.52
2023-03-02T09:59:18.264Z,12.93
2023-03-02T10:01:51.672Z,13.02
2023-03-02T10:04:47.066Z,12.35
2023-03-02T10:07:17.802Z,12.45
2023-03-02T10:09:45.350Z,12.77
2023-03-02T10:12:43.248Z,12.68
2023-03-02T10:15:26.403Z,12.68
2023-03-02T10:18:23.631Z,13.50
2023-03-02T10:20:51.756Z,13.07
2023-03-02T10:23:30.562Z,14.30
2023-03-02T10:26:26.378Z,17.08
2023-03-02T10:29:06.393Z,13.00
2023-03-02T10:31:33.945Z,11.77
2023-03-02T10:34:01.365Z,12.27
2023-03-02T10:36:30.754Z,12.38
2023-03-02T10:38:58.662Z,12.75
2023-03-02T10:41:36.575Z,12.00
2023-03-02T10:44:14.517Z,12.30
2023-03-02T10:46:44.169Z,12.15
2023-03-02T10:49:37.085Z,11.70
2023-03-02T10:52:05.593Z,11.45
2023-03-02T10:54:34.634Z,11.27
2023-03-02T10:57:04.358Z,11.77
2023-03-02T10:59:48.452Z,11.60
2023-03-02T11:02:27.779Z,11.48
2023-03-02T11:05:15.078Z,11.77
2023-03-02T11:07:50.772Z,11.40
2023-03-02T11:10:21.233Z,12.05
2023-03-02T11:12:51.754Z,11.55
2023-03-02T11:15:24.106Z,11.70
2023-03-02T11:17:50.773Z,11.63
2023-03-02T11:20:29.494Z,11.25
2023-03-02T11:23:14.665Z,10.98
2023-03-02T11:25:48.712Z,11.57
2023-03-02T11:28:27.848Z,12.07
2023-03-02T11:30:57.648Z,11.60
2023-03-02T11:33:35.295Z,11.32
2023-03-02T11:36:15.877Z,10.60
2023-03-02T11:38:50.794Z,11.43
2023-03-02T11:41:34.102Z,11.68
2023-03-02T11:44:07.842Z,11.55
2023-03-02T11:46:35.801Z,10.45
2023-03-02T11:49:16.979Z,11.38
2023-03-02T11:51:58.084Z,10.07
2023-03-02T11:54:51.708Z,10.73
2023-03-02T11:57:25.721Z,11.75
2023-03-02T11:59:53.660Z,11.63
2023-03-02T12:02:21.698Z,11.20
2023-03-02T12:04:48.950Z,10.82
2023-03-02T12:07:20.680Z,10.45
2023-03-02T12:09:50.814Z,10.52
2023-03-02T12:12:51.778Z,11.32
2023-03-02T12:15:41.942Z,10.07
2023-03-02T12:18:23.892Z,9.55
2023-03-02T12:20:50.874Z,10.15
2023-03-02T12:23:24.140Z,10.65
2023-03-02T12:25:50.831Z,10.48
2023-03-02T12:28:34.250Z,10.20
2023-03-02T12:31:11.383Z,10.02
2023-03-02T12:33:48.963Z,10.05
2023-03-02T12:36:41.556Z,10.43
2023-03-02T12:39:26.193Z,10.10
2023-03-02T12:42:25.897Z,10.18
2023-03-02T12:45:12.140Z,10.65
2023-03-02T12:47:45.259Z,11.05
2023-03-02T12:50:22.468Z,10.82
2023-03-02T12:52:52.079Z,9.85
2023-03-02T12:55:20.296Z,10.05
2023-03-02T12:57:51.836Z,9.93
2023-03-02T13:00:22.181Z,10.88
2023-03-02T13:02:51.848Z,10.73
2023-03-02T13:05:21.797Z,10.80
2023-03-02T13:07:52.083Z,11.27
2023-03-02T13:10:37.091Z,10.63
2023-03-02T13:13:27.048Z,11.27
2023-03-02T13:15:57.413Z,10.38
2023-03-02T13:18:28.547Z,10.55
2023-03-02T13:20:55.896Z,10.38
2023-03-02T13:23:22.709Z,9.77
2023-03-02T13:25:51.828Z,9.88
2023-03-02T13:28:35.181Z,9.77
2023-03-02T13:31:06.650Z,9.93
2023-03-02T13:33:41.395Z,9.70
2023-03-02T13:36:08.284Z,9.35
2023-03-02T13:38:38.098Z,9.65
2023-03-02T13:41:05.255Z,8.75
2023-03-02T13:43:39.910Z,10.07
2023-03-02T13:46:12.436Z,9.88
2023-03-02T13:48:39.201Z,10.45
2023-03-02T13:51:17.454Z,10.25
2023-03-02T13:53:53.166Z,10.40
2023-03-02T13:56:29.623Z,10.30
2023-03-02T13:58:56.399Z,9.70
2023-03-02T14:01:23.450Z,9.70
2023-03-02T14:06:18.955Z,9.35
2023-03-02T14:08:46.990Z,9.07
2023-03-02T14:11:19.487Z,9.27
2023-03-02T14:13:51.947Z,8.50
2023-03-02T14:16:19.117Z,9.57
2023-03-02T14:18:48.261Z,7.70
2023-03-02T14:21:20.798Z,8.77
2023-03-02T14:23:47.644Z,8.13
2023-03-02T14:26:23.291Z,8.45
2023-03-02T14:31:18.965Z,7.35
2023-03-02T14:33:46.224Z,8.35
2023-03-02T14:36:20.423Z,8.55
2023-03-02T14:38:47.222Z,8.50
2023-03-02T14:41:20.299Z,8.55
2023-03-02T14:43:47.037Z,8.95
2023-03-02T14:46:13.793Z,8.27
2023-03-02T14:48:40.900Z,8.10
2023-03-02T14:51:31.129Z,8.48
2023-03-02T14:53:59.966Z,8.20
2023-03-02T14:56:27.067Z,7.55
2023-03-02T14:58:54.397Z,8.20
2023-03-02T15:01:21.715Z,7.70
2023-03-02T15:03:48.484Z,9.43
2023-03-02T15:06:33.810Z,8.38
2023-03-02T15:09:01.581Z,8.23
2023-03-02T15:11:28.580Z,8.43
2023-03-02T15:13:55.340Z,8.27
2023-03-02T15:16:22.898Z,8.15
2023-03-02T15:18:52.252Z,8.27
2023-03-02T15:21:24.087Z,8.70
2023-03-02T15:26:16.608Z,8.98
2023-03-02T15:28:45.835Z,8.10
2023-03-02T15:31:15.428Z,8.05
2023-03-02T15:33:43.505Z,8.15
2023-03-02T15:36:10.470Z,7.88
2023-03-02T15:38:37.773Z,8.32
2023-03-02T15:41:13.305Z,8.43
2023-03-02T15:43:40.366Z,7.53
2023-03-02T15:46:09.491Z,8.05
2023-03-02T15:48:37.069Z,8.27
2023-03-02T15:51:06.987Z,8.25
2023-03-02T15:53:37.848Z,7.70
2023-03-02T15:56:10.573Z,8.27
2023-03-02T15:58:37.290Z,7.93
2023-03-02T16:01:08.898Z,8.75
2023-03-02T16:03:35.679Z,7.47
2023-03-02T16:06:03.225Z,8.95
2023-03-02T16:08:30.123Z,8.27
2023-03-02T16:11:01.992Z,8.75
2023-03-02T16:13:33.169Z,8.88
2023-03-02T16:16:05.077Z,8.30
2023-03-02T16:18:32.486Z,9.05
2023-03-02T16:21:00.006Z,8.75
2023-03-02T16:23:26.684Z,8.65
2023-03-02T16:25:54.395Z,13.85
2023-03-02T16:28:21.634Z,10.23
2023-03-02T16:30:49.585Z,8.77
2023-03-02T16:33:18.396Z,9.77
2023-03-02T16:35:45.513Z,9.70
2023-03-02T16:38:12.963Z,10.00
2023-03-02T16:40:40.323Z,10.32
2023-03-02T16:43:09.211Z,9.80
2023-03-02T16:45:36.143Z,9.48
2023-03-02T16:48:04.638Z,8.85
2023-03-02T16:50:31.909Z,9.77
2023-03-02T16:52:59.532Z,9.48
2023-03-02T16:55:26.622Z,10.20
2023-03-02T16:57:53.842Z,9.10
2023-03-02T17:00:22.278Z,9.52
2023-03-02T17:05:19.153Z,10.65
2023-03-02T17:07:46.496Z,10.23
2023-03-02T17:10:22.010Z,9.50
2023-03-02T17:12:49.264Z,9.30
2023-03-02T17:15:16.369Z,10.35
2023-03-02T17:17:43.488Z,9.63
2023-03-02T17:20:11.738Z,10.18
2023-03-02T17:22:39.506Z,10.50
2023-03-02T17:25:07.005Z,9.98
2023-03-02T17:27:34.348Z,9.90
2023-03-02T17:30:01.285Z,10.07
2023-03-02T17:32:28.105Z,10.45
2023-03-02T17:34:55.132Z,10.60
2023-03-02T17:37:22.185Z,9.50
2023-03-02T17:39:52.187Z,10.80
2023-03-02T17:42:26.170Z,10.32
2023-03-02T17:44:53.479Z,11.50
2023-03-02T17:47:20.997Z,10.70
2023-03-02T17:49:47.838Z,11.65
2023-03-02T17:52:16.684Z,10.80
2023-03-02T17:54:43.685Z,11.07
2023-03-02T17:57:11.497Z,10.77
2023-03-02T17:59:38.380Z,11.68
2023-03-02T18:02:05.489Z,12.65
2023-03-02T18:04:32.554Z,11.27
2023-03-02T18:07:00.504Z,11.77
2023-03-02T18:09:27.224Z,11.90
2023-03-02T18:11:54.526Z,12.15
2023-03-02T18:14:21.983Z,12.20
2023-03-02T18:19:16.628Z,13.07
2023-03-02T18:21:43.497Z,11.60
2023-03-02T18:24:10.387Z,11.65
2023-03-02T18:26:37.546Z,11.00
2023-03-02T18:29:05.430Z,12.82
2023-03-02T18:31:34.530Z,11.90
2023-03-02T18:34:02.668Z,12.68
2023-03-02T18:36:30.174Z,11.30
2023-03-02T18:38:57.130Z,10.95
2023-03-02T18:41:24.648Z,11.05
2023-03-02T18:43:52.048Z,10.80
2023-03-02T18:46:26.628Z,11.13
2023-03-02T18:48:55.693Z,12.18
2023-03-02T18:51:24.902Z,12.18
2023-03-02T18:53:52.801Z,11.15
2023-03-02T18:56:21.460Z,11.23
2023-03-02T19:01:16.383Z,12.57
2023-03-02T19:03:46.038Z,12.43
2023-03-02T19:06:12.920Z,12.15
2023-03-02T19:08:39.915Z,12.05
2023-03-02T19:11:07.104Z,11.77
2023-03-02T19:13:34.389Z,13.15
2023-03-02T19:16:02.182Z,13.90
2023-03-02T19:18:30.534Z,12.70
2023-03-02T19:20:57.902Z,12.55
2023-03-02T19:23:25.367Z,12.55
2023-03-02T19:25:53.060Z,13.52
2023-03-02T19:28:21.906Z,13.13
2023-03-02T19:33:17.078Z,12.48
2023-03-02T19:35:44.987Z,12.27
2023-03-02T19:38:13.950Z,13.82
2023-03-02T19:40:40.979Z,13.13
2023-03-02T19:43:07.754Z,13.48
2023-03-02T19:45:36.323Z,13.07
2023-03-02T19:48:05.945Z,13.05
2023-03-02T19:50:33.185Z,11.93
2023-03-02T19:53:00.031Z,12.98
2023-03-02T19:55:27.875Z,13.15
2023-03-02T19:58:00.369Z,12.65
2023-03-02T20:00:33.784Z,12.32
2023-03-02T20:03:01.267Z,12.02
2023-03-02T20:05:28.289Z,13.05
2023-03-02T20:07:55.632Z,11.93
2023-03-02T20:10:31.470Z,11.52
2023-03-02T20:12:59.906Z,12.07
2023-03-02T20:15:31.118Z,12.80
2023-03-02T20:18:02.716Z,11.65
2023-03-02T20:20:30.961Z,12.43
2023-03-02T20:22:59.194Z,12.20
2023-03-02T20:25:27.489Z,13.90
2023-03-02T20:27:56.316Z,12.68
2023-03-02T20:30:30.056Z,11.40
2023-03-02T20:32:58.113Z,11.63
2023-03-02T20:35:27.157Z,12.10
2023-03-02T20:37:55.325Z,13.25
2023-03-02T20:40:25.766Z,12.55
2023-03-02T20:42:56.730Z,12.13
2023-03-02T20:45:23.556Z,11.95
2023-03-02T20:50:21.490Z,13.00
2023-03-02T20:52:48.197Z,13.68
2023-03-02T20:55:15.158Z,13.93
2023-03-02T20:57:42.138Z,14.68
2023-03-02T21:00:15.053Z,13.85
2023-03-02T21:02:42.645Z,14.38
2023-03-02T21:05:09.927Z,13.52
2023-03-02T21:07:36.784Z,13.88
2023-03-02T21:10:09.823Z,14.40
2023-03-02T21:12:37.005Z,13.55
2023-03-02T21:15:05.439Z,13.48
2023-03-02T21:17:32.321Z,14.65
2023-03-02T21:19:59.431Z,14.07
2023-03-02T21:22:26.106Z,13.30
2023-03-02T21:24:58.900Z,13.55
2023-03-02T21:27:26.780Z,13.48
2023-03-02T21:29:53.461Z,13.48
2023-03-02T21:32:20.410Z,14.35
2023-03-02T21:34:47.578Z,14.20
2023-03-02T21:37:14.287Z,14.35
2023-03-02T21:39:41.025Z,14.07
2023-03-02T21:42:08.133Z,14.20
2023-03-02T21:44:34.851Z,14.77
2023-03-02T21:47:01.607Z,14.57
2023-03-02T21:49:28.488Z,15.00
2023-03-02T21:51:55.193Z,13.98
2023-03-02T21:54:22.363Z,14.02
2023-03-02T21:59:16.731Z,14.80
2023-03-02T22:01:44.152Z,14.70
2023-03-02T22:04:11.730Z,14.93
2023-03-02T22:06:38.606Z,15.27
2023-03-02T22:09:05.416Z,15.85
2023-03-02T22:11:38.043Z,16.35
2023-03-02T22:14:14.572Z,15.60
2023-03-02T22:16:46.750Z,14.63
2023-03-02T22:19:32.710Z,16.67
2023-03-02T22:22:03.590Z,14.85
2023-03-02T22:24:32.523Z,15.07
2023-03-02T22:27:24.351Z,14.68
2023-03-02T22:29:53.238Z,13.73
2023-03-02T22:32:25.320Z,14.98
2023-03-02T22:34:54.828Z,14.30
2023-03-02T22:37:24.961Z,15.25
2023-03-02T22:39:55.894Z,13.95
2023-03-02T22:42:24.536Z,14.27
2023-03-02T22:44:52.131Z,13.38
2023-03-02T22:47:20.388Z,12.82
2023-03-02T22:52:23.174Z,14.02
2023-03-02T22:57:37.044Z,15.07
2023-03-02T23:00:48.402Z,13.73
2023-03-02T23:03:25.368Z,15.05
2023-03-02T23:05:53.294Z,15.80
2023-03-02T23:08:28.021Z,16.27
2023-03-02T23:11:00.456Z,14.15
2023-03-02T23:13:39.520Z,15.07
2023-03-02T23:16:27.897Z,16.15
2023-03-02T23:18:57.298Z,14.10
2023-03-02T23:21:28.532Z,15.93
2023-03-02T23:23:56.336Z,13.68
2023-03-02T23:26:23.127Z,15.25
2023-03-02T23:28:52.421Z,15.07
2023-03-02T23:31:19.748Z,16.00
2023-03-02T23:33:46.753Z,14.55
2023-03-02T23:36:14.277Z,15.32
2023-03-02T23:38:41.502Z,14.52
2023-03-02T23:41:10.096Z,15.05
2023-03-02T23:43:37.178Z,15.27
2023-03-02T23:46:04.129Z,15.50
2023-03-02T23:48:31.072Z,15.95
2023-03-02T23:50:57.882Z,14.80
2023-03-02T23:53:25.238Z,13.35
2023-03-02T23:55:55.465Z,14.93
2023-03-02T23:58:23.264Z,15.15
